createdAt,value
2018-02-24T00:01:31.945Z,10.18
2018-02-24T00:03:58.425Z,11.00
2018-02-24T00:06:25.665Z,11.35
2018-02-24T00:08:52.093Z,10.32
2018-02-24T00:11:18.532Z,10.70
2018-02-24T00:13:45.120Z,13.45
2018-02-24T00:16:11.572Z,10.40
2018-02-24T00:18:37.998Z,12.93
2018-02-24T00:21:06.040Z,11.40
2018-02-24T00:23:32.535Z,12.37
2018-02-24T00:25:59.066Z,11.23
2018-02-24T00:28:25.486Z,17.33
2018-02-24T00:30:51.979Z,15.05
2018-02-24T00:33:19.234Z,12.73
2018-02-24T00:35:45.637Z,11.82
2018-02-24T00:38:12.088Z,11.57
2018-02-24T00:40:38.531Z,12.52
2018-02-24T00:43:05.514Z,16.30
2018-02-24T00:45:32.071Z,11.98
2018-02-24T00:47:58.534Z,13.80
2018-02-24T00:50:25.710Z,12.55
2018-02-24T00:52:52.134Z,12.77
2018-02-24T00:55:20.151Z,15.45
2018-02-24T00:57:46.618Z,12.27
2018-02-24T01:00:13.183Z,14.52
2018-02-24T01:02:39.650Z,20.33
2018-02-24T01:05:06.092Z,16.17
2018-02-24T01:07:33.298Z,13.77
2018-02-24T01:09:59.727Z,13.85
2018-02-24T01:12:26.934Z,14.60
2018-02-24T01:14:53.349Z,14.38
2018-02-24T01:17:19.781Z,15.15
2018-02-24T01:19:46.197Z,11.65
2018-02-24T01:22:13.362Z,14.48
2018-02-24T01:24:40.543Z,20.20
2018-02-24T01:27:07.706Z,10.65
2018-02-24T01:29:34.867Z,14.57
2018-02-24T01:32:02.019Z,15.75
2018-02-24T01:34:28.450Z,17.58
2018-02-24T01:36:55.577Z,11.93
2018-02-24T01:39:21.999Z,11.93
2018-02-24T01:41:48.400Z,17.15
2018-02-24T01:44:14.805Z,18.15
2018-02-24T01:46:41.365Z,11.88
2018-02-24T01:49:07.779Z,17.23
2018-02-24T01:51:34.171Z,18.45
2018-02-24T01:54:00.614Z,19.33
2018-02-24T01:56:27.027Z,19.65
2018-02-24T01:58:53.457Z,16.75
2018-02-24T02:01:19.894Z,22.05
2018-02-24T02:03:47.028Z,16.62
2018-02-24T02:06:13.442Z,17.85
2018-02-24T02:08:39.880Z,23.92
2018-02-24T02:11:06.513Z,18.23
2018-02-24T02:13:32.943Z,17.12
2018-02-24T02:16:00.055Z,18.95
2018-02-24T02:18:26.569Z,29.63
2018-02-24T02:20:53.021Z,18.50
2018-02-24T02:23:19.723Z,19.52
2018-02-24T02:25:46.905Z,24.55
2018-02-24T02:28:13.277Z,22.60
2018-02-24T02:30:41.237Z,16.45
2018-02-24T02:33:08.650Z,24.50
2018-02-24T02:35:35.837Z,23.20
2018-02-24T02:38:03.577Z,24.10
2018-02-24T02:40:30.759Z,21.90
2018-02-24T02:42:57.208Z,19.90
2018-02-24T02:45:23.590Z,23.58
2018-02-24T02:47:50.188Z,20.10
2018-02-24T02:50:16.578Z,23.12
2018-02-24T02:52:43.013Z,23.25
2018-02-24T02:55:10.166Z,21.30
2018-02-24T02:57:36.617Z,19.12
2018-02-24T03:00:04.763Z,18.80
2018-02-24T03:02:31.202Z,19.83
2018-02-24T03:04:57.629Z,20.88
2018-02-24T03:07:24.100Z,18.52
2018-02-24T03:09:50.497Z,19.55
2018-02-24T03:12:16.951Z,26.23
2018-02-24T03:14:43.361Z,22.65
2018-02-24T03:17:10.574Z,22.33
2018-02-24T03:19:37.036Z,16.35
2018-02-24T03:22:04.297Z,16.30
2018-02-24T03:24:30.819Z,20.33
2018-02-24T03:26:57.709Z,23.30
2018-02-24T03:29:24.139Z,18.90
2018-02-24T03:31:50.587Z,19.87
2018-02-24T03:34:17.061Z,20.77
2018-02-24T03:36:43.435Z,15.88
2018-02-24T03:39:11.303Z,20.27
2018-02-24T03:41:38.485Z,20.25
2018-02-24T03:44:05.784Z,18.62
2018-02-24T03:46:33.027Z,14.85
2018-02-24T03:48:59.463Z,19.75
2018-02-24T03:51:26.001Z,22.67
2018-02-24T03:53:52.424Z,19.65
2018-02-24T03:56:19.068Z,17.35
2018-02-24T03:58:45.511Z,17.42
2018-02-24T04:01:12.715Z,21.65
2018-02-24T04:03:39.165Z,25.67
2018-02-24T04:06:06.217Z,15.05
2018-02-24T04:08:32.659Z,21.70
2018-02-24T04:10:59.243Z,21.02
2018-02-24T04:13:25.664Z,18.08
2018-02-24T04:15:52.076Z,23.45
2018-02-24T04:18:19.015Z,16.08
2018-02-24T04:20:46.168Z,18.25
2018-02-24T04:23:12.689Z,21.85
2018-02-24T04:25:39.130Z,27.83
2018-02-24T04:28:06.202Z,24.87
2018-02-24T04:30:33.398Z,18.20
2018-02-24T04:33:00.578Z,16.50
2018-02-24T04:35:26.980Z,34.47
2018-02-24T04:37:54.223Z,19.02
2018-02-24T04:40:20.675Z,24.17
2018-02-24T04:42:47.063Z,21.33
2018-02-24T04:45:14.214Z,26.83
2018-02-24T04:47:41.339Z,20.40
2018-02-24T04:50:08.015Z,18.30
2018-02-24T04:52:35.186Z,20.02
2018-02-24T04:55:02.932Z,19.95
2018-02-24T04:57:30.118Z,18.98
2018-02-24T04:59:56.540Z,20.73
2018-02-24T05:02:22.933Z,20.27
2018-02-24T05:04:49.367Z,18.65
2018-02-24T05:07:15.833Z,24.17
2018-02-24T05:09:42.273Z,15.57
2018-02-24T05:12:08.727Z,18.05
2018-02-24T05:14:36.686Z,12.85
2018-02-24T05:17:04.422Z,19.55
2018-02-24T05:19:30.909Z,26.77
2018-02-24T05:21:57.518Z,21.60
2018-02-24T05:24:23.916Z,16.83
2018-02-24T05:26:51.033Z,19.60
2018-02-24T05:29:17.722Z,19.62
2018-02-24T05:31:44.137Z,15.93
2018-02-24T05:34:11.469Z,17.20
2018-02-24T05:36:37.902Z,21.92
2018-02-24T05:39:05.006Z,15.00
2018-02-24T05:41:32.156Z,19.70
2018-02-24T05:43:58.576Z,18.40
2018-02-24T05:46:25.121Z,19.67
2018-02-24T05:48:51.569Z,23.73
2018-02-24T05:51:18.114Z,17.50
2018-02-24T05:53:44.519Z,23.55
2018-02-24T05:56:11.133Z,16.12
2018-02-24T05:58:37.676Z,16.70
2018-02-24T06:01:05.865Z,12.77
2018-02-24T06:03:33.217Z,17.30
2018-02-24T06:05:59.800Z,17.50
2018-02-24T06:08:26.289Z,16.83
2018-02-24T06:10:52.825Z,17.00
2018-02-24T06:13:19.579Z,15.65
2018-02-24T06:15:46.869Z,18.83
2018-02-24T06:18:13.948Z,18.52
2018-02-24T06:20:40.449Z,16.08
2018-02-24T06:23:07.054Z,16.20
2018-02-24T06:25:34.471Z,18.25
2018-02-24T06:28:02.392Z,19.60
2018-02-24T06:30:28.897Z,16.33
2018-02-24T06:32:55.405Z,16.02
2018-02-24T06:35:22.017Z,19.62
2018-02-24T06:37:48.531Z,20.27
2018-02-24T06:40:15.069Z,16.35
2018-02-24T06:42:41.851Z,17.95
2018-02-24T06:45:08.373Z,16.77
2018-02-24T06:47:35.141Z,24.35
2018-02-24T06:50:01.802Z,18.33
2018-02-24T06:52:29.439Z,18.17
2018-02-24T06:54:55.967Z,19.02
2018-02-24T06:57:22.491Z,16.73
2018-02-24T06:59:48.961Z,20.90
2018-02-24T07:02:15.419Z,17.48
2018-02-24T07:04:41.904Z,17.10
2018-02-24T07:07:09.832Z,19.85
2018-02-24T07:09:37.083Z,19.02
2018-02-24T07:12:04.718Z,14.75
2018-02-24T07:14:32.075Z,19.37
2018-02-24T07:16:59.762Z,17.10
2018-02-24T07:19:29.045Z,16.08
2018-02-24T07:21:56.845Z,16.12
2018-02-24T07:24:23.307Z,19.02
2018-02-24T07:26:51.996Z,16.92
2018-02-24T07:29:18.860Z,27.90
2018-02-24T07:31:47.779Z,20.10
2018-02-24T07:34:14.388Z,29.02
2018-02-24T07:36:44.186Z,18.05
2018-02-24T07:39:11.057Z,17.00
2018-02-24T07:41:37.682Z,19.35
2018-02-24T07:44:04.888Z,24.25
2018-02-24T07:46:32.428Z,21.30
2018-02-24T07:48:59.665Z,20.80
2018-02-24T07:51:27.229Z,16.25
2018-02-24T07:53:55.039Z,18.87
2018-02-24T07:56:21.532Z,16.73
2018-02-24T07:58:49.896Z,21.15
2018-02-24T08:01:17.064Z,26.02
2018-02-24T08:03:44.836Z,16.65
2018-02-24T08:06:11.812Z,17.65
2018-02-24T08:08:38.498Z,16.42
2018-02-24T08:11:08.510Z,19.20
2018-02-24T08:13:36.154Z,22.48
2018-02-24T08:16:03.877Z,23.70
2018-02-24T08:18:32.193Z,14.05
2018-02-24T08:20:59.207Z,18.95
2018-02-24T08:23:25.845Z,18.45
2018-02-24T08:25:52.322Z,19.83
2018-02-24T08:28:19.734Z,24.40
2018-02-24T08:30:46.427Z,23.00
2018-02-24T08:33:13.084Z,19.43
2018-02-24T08:35:42.111Z,20.70
2018-02-24T08:38:09.171Z,22.00
2018-02-24T08:40:36.016Z,19.87
2018-02-24T08:43:05.378Z,19.27
2018-02-24T08:45:32.861Z,18.23
2018-02-24T08:48:00.843Z,24.80
2018-02-24T08:50:27.524Z,21.27
2018-02-24T08:52:55.154Z,21.30
2018-02-24T08:55:23.287Z,18.00
2018-02-24T08:57:49.879Z,17.13
2018-02-24T09:00:17.263Z,20.33
2018-02-24T09:02:44.564Z,18.70
2018-02-24T09:05:11.446Z,17.40
2018-02-24T09:07:38.192Z,20.13
2018-02-24T09:10:06.552Z,26.83
2018-02-24T09:12:34.122Z,21.33
2018-02-24T09:15:01.409Z,17.10
2018-02-24T09:17:28.622Z,19.27
2018-02-24T09:19:55.228Z,18.17
2018-02-24T09:22:22.519Z,17.67
2018-02-24T09:24:49.065Z,26.03
2018-02-24T09:27:16.710Z,21.70
2018-02-24T09:29:44.385Z,16.10
2018-02-24T09:32:11.767Z,16.33
2018-02-24T09:34:38.484Z,16.83
2018-02-24T09:37:06.209Z,20.30
2018-02-24T09:39:32.722Z,18.03
2018-02-24T09:42:00.773Z,18.30
2018-02-24T09:44:27.280Z,17.13
2018-02-24T09:46:54.505Z,17.00
2018-02-24T09:49:21.156Z,15.87
2018-02-24T09:51:47.828Z,15.97
2018-02-24T09:54:14.383Z,18.93
2018-02-24T09:56:40.966Z,22.47
2018-02-24T09:59:08.472Z,14.77
2018-02-24T10:01:35.014Z,17.47
2018-02-24T10:04:02.572Z,17.30
2018-02-24T10:06:29.137Z,16.90
2018-02-24T10:08:55.761Z,19.20
2018-02-24T10:11:22.347Z,22.60
2018-02-24T10:13:50.586Z,15.40
2018-02-24T10:16:17.918Z,18.00
2018-02-24T10:18:45.298Z,20.70
2018-02-24T10:21:11.874Z,16.50
2018-02-24T10:23:38.656Z,17.93
2018-02-24T10:26:06.309Z,15.90
2018-02-24T10:28:32.915Z,14.33
2018-02-24T10:30:59.548Z,14.27
2018-02-24T10:33:26.164Z,14.10
2018-02-24T10:35:52.736Z,17.83
2018-02-24T10:38:19.338Z,15.10
2018-02-24T10:40:45.909Z,18.07
2018-02-24T10:43:12.528Z,17.73
2018-02-24T10:45:39.072Z,15.83
2018-02-24T10:48:06.060Z,17.83
2018-02-24T10:50:32.975Z,12.27
2018-02-24T10:52:59.521Z,12.60
2018-02-24T10:55:26.087Z,15.53
2018-02-24T10:57:53.499Z,13.07
2018-02-24T11:00:20.106Z,13.50
2018-02-24T11:02:46.774Z,11.83
2018-02-24T11:05:14.103Z,12.40
2018-02-24T11:07:40.729Z,13.80
2018-02-24T11:10:08.468Z,13.13
2018-02-24T11:12:35.798Z,17.17
2018-02-24T11:15:02.375Z,13.30
2018-02-24T11:17:28.914Z,14.73
2018-02-24T11:19:56.604Z,17.00
2018-02-24T11:22:23.218Z,13.23
2018-02-24T11:24:49.803Z,13.40
2018-02-24T11:27:16.275Z,12.87
2018-02-24T11:29:43.056Z,11.50
2018-02-24T11:32:10.780Z,13.70
2018-02-24T11:34:37.984Z,14.23
2018-02-24T11:37:04.799Z,15.57
2018-02-24T11:39:37.282Z,16.03
2018-02-24T11:42:05.156Z,13.43
2018-02-24T11:44:32.475Z,12.50
2018-02-24T11:46:59.040Z,12.50
2018-02-24T11:49:26.026Z,13.60
2018-02-24T11:51:52.527Z,15.77
2018-02-24T11:54:19.044Z,19.33
2018-02-24T11:56:47.512Z,15.93
2018-02-24T11:59:14.110Z,12.07
2018-02-24T12:01:40.727Z,12.23
2018-02-24T12:04:08.486Z,8.37
2018-02-24T12:06:35.872Z,8.60
2018-02-24T12:09:03.737Z,16.53
2018-02-24T12:11:31.631Z,13.63
2018-02-24T12:13:58.235Z,14.00
2018-02-24T12:16:24.803Z,16.27
2018-02-24T12:18:52.976Z,12.00
2018-02-24T12:21:20.552Z,8.57
2018-02-24T12:23:49.703Z,11.70
2018-02-24T12:26:16.426Z,12.47
2018-02-24T12:28:45.845Z,13.63
2018-02-24T12:31:14.895Z,11.47
2018-02-24T12:33:43.411Z,8.33
2018-02-24T12:36:10.037Z,9.80
2018-02-24T12:38:36.864Z,7.83
2018-02-24T12:41:05.583Z,8.97
2018-02-24T12:43:32.041Z,6.73
2018-02-24T12:45:58.553Z,8.37
2018-02-24T12:48:25.118Z,9.67
2018-02-24T12:50:51.770Z,10.30
2018-02-24T12:53:19.105Z,11.27
2018-02-24T12:55:45.767Z,8.27
2018-02-24T12:58:12.248Z,17.67
2018-02-24T13:00:38.844Z,8.57
2018-02-24T13:03:06.033Z,7.67
2018-02-24T13:05:33.888Z,10.23
2018-02-24T13:08:00.453Z,7.87
2018-02-24T13:10:27.913Z,9.60
2018-02-24T13:12:54.393Z,10.77
2018-02-24T13:15:24.593Z,6.43
2018-02-24T13:17:51.669Z,8.90
2018-02-24T13:20:18.936Z,10.47
2018-02-24T13:22:45.614Z,6.80
2018-02-24T13:25:14.286Z,7.07
2018-02-24T13:27:41.007Z,8.20
2018-02-24T13:30:08.297Z,10.60
2018-02-24T13:32:37.761Z,7.27
2018-02-24T13:35:05.814Z,7.07
2018-02-24T13:37:37.100Z,7.10
2018-02-24T13:40:05.235Z,7.77
2018-02-24T13:42:31.703Z,7.57
2018-02-24T13:44:58.943Z,8.00
2018-02-24T13:47:26.099Z,7.30
2018-02-24T13:49:52.824Z,10.10
2018-02-24T13:52:19.389Z,7.17
2018-02-24T13:54:45.915Z,7.90
2018-02-24T13:57:12.453Z,5.73
2018-02-24T13:59:39.148Z,7.67
2018-02-24T14:02:07.760Z,7.73
2018-02-24T14:04:35.245Z,10.60
2018-02-24T14:07:01.794Z,7.37
2018-02-24T14:09:28.435Z,5.17
2018-02-24T14:11:55.625Z,8.50
2018-02-24T14:14:22.930Z,10.07
2018-02-24T14:16:50.187Z,5.30
2018-02-24T14:19:16.609Z,7.60
2018-02-24T14:21:44.959Z,7.00
2018-02-24T14:24:12.502Z,5.67
2018-02-24T14:26:39.732Z,6.10
2018-02-24T14:29:06.620Z,6.40
2018-02-24T14:31:33.200Z,6.37
2018-02-24T14:33:59.912Z,9.10
2018-02-24T14:36:26.385Z,4.87
2018-02-24T14:38:53.282Z,4.10
2018-02-24T14:41:20.630Z,5.00
2018-02-24T14:43:47.198Z,5.80
2018-02-24T14:46:13.744Z,6.43
2018-02-24T14:48:40.253Z,4.57
2018-02-24T14:51:07.818Z,6.60
2018-02-24T14:53:34.511Z,5.63
2018-02-24T14:56:01.032Z,8.10
2018-02-24T14:58:28.389Z,7.47
2018-02-24T15:00:54.950Z,5.40
2018-02-24T15:03:21.538Z,3.67
2018-02-24T15:05:48.009Z,6.87
2018-02-24T15:08:14.454Z,6.37
2018-02-24T15:10:40.981Z,6.17
2018-02-24T15:13:08.137Z,6.63
2018-02-24T15:15:34.743Z,4.40
2018-02-24T15:18:01.315Z,6.03
2018-02-24T15:20:28.648Z,4.67
2018-02-24T15:22:56.939Z,3.60
2018-02-24T15:25:23.588Z,7.43
2018-02-24T15:27:50.105Z,10.60
2018-02-24T15:30:17.689Z,19.33
2018-02-24T15:32:44.302Z,3.83
2018-02-24T15:35:11.480Z,2.90
2018-02-24T15:37:39.015Z,3.57
2018-02-24T15:40:06.095Z,8.93
2018-02-24T15:42:32.583Z,5.10
2018-02-24T15:44:59.127Z,5.63
2018-02-24T15:47:25.653Z,4.47
2018-02-24T15:49:52.302Z,5.30
2018-02-24T15:52:20.316Z,5.30
2018-02-24T15:54:46.925Z,7.33
2018-02-24T15:57:14.297Z,7.60
2018-02-24T15:59:40.833Z,5.63
2018-02-24T16:02:08.189Z,5.93
2018-02-24T16:04:34.766Z,10.03
2018-02-24T16:07:01.311Z,6.00
2018-02-24T16:09:27.981Z,8.33
2018-02-24T16:11:54.614Z,7.13
2018-02-24T16:14:21.104Z,8.33
2018-02-24T16:16:47.657Z,6.97
2018-02-24T16:19:14.472Z,7.27
2018-02-24T16:21:41.282Z,7.50
2018-02-24T16:24:08.325Z,6.43
2018-02-24T16:26:35.501Z,7.63
2018-02-24T16:29:03.217Z,7.53
2018-02-24T16:31:29.784Z,6.80
2018-02-24T16:33:56.259Z,8.93
2018-02-24T16:36:22.841Z,5.97
2018-02-24T16:38:49.383Z,5.80
2018-02-24T16:41:15.873Z,9.63
2018-02-24T16:43:42.418Z,11.73
2018-02-24T16:46:10.922Z,10.30
2018-02-24T16:48:38.279Z,12.40
2018-02-24T16:51:05.356Z,7.20
2018-02-24T16:53:31.839Z,9.60
2018-02-24T16:55:58.254Z,9.10
2018-02-24T16:58:24.861Z,9.97
2018-02-24T17:00:52.087Z,10.60
2018-02-24T17:03:18.622Z,9.27
2018-02-24T17:05:45.146Z,9.60
2018-02-24T17:08:12.093Z,8.07
2018-02-24T17:10:38.602Z,10.67
2018-02-24T17:13:06.311Z,5.37
2018-02-24T17:15:33.540Z,5.60
2018-02-24T17:18:00.145Z,7.07
2018-02-24T17:20:26.759Z,7.70
2018-02-24T17:22:54.540Z,8.05
2018-02-24T17:25:22.747Z,8.40
2018-02-24T17:27:49.721Z,10.18
2018-02-24T17:30:16.377Z,6.67
2018-02-24T17:32:42.961Z,8.03
2018-02-24T17:35:10.173Z,6.77
2018-02-24T17:37:36.673Z,7.83
2018-02-24T17:40:03.909Z,4.87
2018-02-24T17:42:31.307Z,27.30
2018-02-24T17:44:58.098Z,6.00
2018-02-24T17:47:25.269Z,7.97
2018-02-24T17:49:52.471Z,6.73
2018-02-24T17:52:18.924Z,8.90
2018-02-24T17:54:45.383Z,5.40
2018-02-24T17:57:11.872Z,8.30
2018-02-24T17:59:38.322Z,6.10
2018-02-24T18:02:05.400Z,4.30
2018-02-24T18:04:32.565Z,4.37
2018-02-24T18:06:59.035Z,5.10
2018-02-24T18:09:25.466Z,8.23
2018-02-24T18:11:51.940Z,8.23
2018-02-24T18:14:18.427Z,6.60
2018-02-24T18:16:45.449Z,5.50
2018-02-24T18:19:12.126Z,11.50
2018-02-24T18:21:39.644Z,13.13
2018-02-24T18:24:06.789Z,6.30
2018-02-24T18:26:33.235Z,7.97
2018-02-24T18:28:59.685Z,5.30
2018-02-24T18:31:26.128Z,5.47
2018-02-24T18:33:52.501Z,5.67
2018-02-24T18:36:18.938Z,8.27
2018-02-24T18:38:45.372Z,4.13
2018-02-24T18:41:11.913Z,3.23
2018-02-24T18:43:38.409Z,3.83
2018-02-24T18:46:05.479Z,3.83
2018-02-24T18:48:33.291Z,5.17
2018-02-24T18:51:00.604Z,9.60
2018-02-24T18:53:27.180Z,3.90
2018-02-24T18:55:54.302Z,4.83
2018-02-24T18:58:20.735Z,2.83
2018-02-24T19:00:47.250Z,3.00
2018-02-24T19:03:14.377Z,7.13
2018-02-24T19:05:41.532Z,11.32
2018-02-24T19:08:08.577Z,4.00
2018-02-24T19:10:35.845Z,2.63
2018-02-24T19:13:02.903Z,3.70
2018-02-24T19:15:29.312Z,3.93
2018-02-24T19:17:55.827Z,2.83
2018-02-24T19:20:22.455Z,7.00
2018-02-24T19:22:49.714Z,2.60
2018-02-24T19:25:16.582Z,6.50
2018-02-24T19:27:43.022Z,3.28
2018-02-24T19:30:10.066Z,5.25
2018-02-24T19:32:36.718Z,4.43
2018-02-24T19:35:03.672Z,3.65
2018-02-24T19:37:30.217Z,2.37
2018-02-24T19:39:56.631Z,2.47
2018-02-24T19:42:23.077Z,3.72
2018-02-24T19:44:49.556Z,4.22
2018-02-24T19:47:15.974Z,2.10
2018-02-24T19:49:43.223Z,1.50
2018-02-24T19:52:09.949Z,3.00
2018-02-24T19:54:36.944Z,2.83
2018-02-24T19:57:03.834Z,1.65
2018-02-24T19:59:30.338Z,2.20
2018-02-24T20:01:56.747Z,2.28
2018-02-24T20:04:23.263Z,2.00
2018-02-24T20:06:50.533Z,2.67
2018-02-24T20:09:17.843Z,2.95
2018-02-24T20:11:44.247Z,1.77
2018-02-24T20:14:11.914Z,4.63
2018-02-24T20:16:38.328Z,2.97
2018-02-24T20:19:05.234Z,3.70
2018-02-24T20:21:32.388Z,3.10
2018-02-24T20:23:58.927Z,2.70
2018-02-24T20:26:25.359Z,2.93
2018-02-24T20:28:51.783Z,3.30
2018-02-24T20:31:18.226Z,2.10
2018-02-24T20:33:44.677Z,4.25
2018-02-24T20:36:11.556Z,1.57
2018-02-24T20:38:37.958Z,2.60
2018-02-24T20:41:05.060Z,8.13
2018-02-24T20:43:33.057Z,2.80
2018-02-24T20:45:59.524Z,4.43
2018-02-24T20:48:26.710Z,10.05
2018-02-24T20:50:53.206Z,2.43
2018-02-24T20:53:20.385Z,2.60
2018-02-24T20:55:46.851Z,2.75
2018-02-24T20:58:13.989Z,2.53
2018-02-24T21:00:40.532Z,2.23
2018-02-24T21:03:07.573Z,2.10
2018-02-24T21:05:34.039Z,1.62
2018-02-24T21:08:00.538Z,3.70
2018-02-24T21:10:26.983Z,1.75
2018-02-24T21:12:53.391Z,1.50
2018-02-24T21:15:20.664Z,2.95
2018-02-24T21:17:47.122Z,3.55
2018-02-24T21:20:13.587Z,1.75
2018-02-24T21:22:41.220Z,4.07
2018-02-24T21:25:08.961Z,3.28
2018-02-24T21:27:36.133Z,2.37
2018-02-24T21:30:04.514Z,2.42
2018-02-24T21:32:31.074Z,4.82
2018-02-24T21:34:57.580Z,3.40
2018-02-24T21:37:24.130Z,1.80
2018-02-24T21:39:50.619Z,5.62
2018-02-24T21:42:17.091Z,3.42
2018-02-24T21:44:43.552Z,2.45
2018-02-24T21:47:10.904Z,1.87
2018-02-24T21:49:37.443Z,4.82
2018-02-24T21:52:04.700Z,1.52
2018-02-24T21:54:31.950Z,5.12
2018-02-24T21:56:58.418Z,1.30
2018-02-24T21:59:25.629Z,2.75
2018-02-24T22:01:52.082Z,3.28
2018-02-24T22:04:18.766Z,3.35
2018-02-24T22:06:45.172Z,3.65
2018-02-24T22:09:12.417Z,3.08
2018-02-24T22:11:38.844Z,2.42
2018-02-24T22:14:05.847Z,5.05
2018-02-24T22:16:33.058Z,5.75
2018-02-24T22:18:59.521Z,4.55
2018-02-24T22:21:25.947Z,1.60
2018-02-24T22:23:52.387Z,1.62
2018-02-24T22:26:19.646Z,1.35
2018-02-24T22:28:46.378Z,2.72
2018-02-24T22:31:13.599Z,2.00
2018-02-24T22:33:40.042Z,2.15
2018-02-24T22:36:07.016Z,3.22
2018-02-24T22:38:33.430Z,2.65
2018-02-24T22:40:59.863Z,1.90
2018-02-24T22:43:26.288Z,3.28
2018-02-24T22:45:53.711Z,2.42
2018-02-24T22:48:26.297Z,3.80
2018-02-24T22:50:52.715Z,2.55
2018-02-24T22:53:19.115Z,1.55
2018-02-24T22:55:45.527Z,4.65
2018-02-24T22:58:12.366Z,4.05
2018-02-24T23:00:39.608Z,1.55
2018-02-24T23:03:06.492Z,3.47
2018-02-24T23:05:32.918Z,4.25
2018-02-24T23:07:59.338Z,3.50
2018-02-24T23:10:26.446Z,2.67
2018-02-24T23:12:52.863Z,2.42
2018-02-24T23:15:19.245Z,2.92
2018-02-24T23:17:45.713Z,3.35
2018-02-24T23:20:12.854Z,1.95
2018-02-24T23:22:39.314Z,2.35
2018-02-24T23:25:09.302Z,2.45
2018-02-24T23:27:35.692Z,4.25
2018-02-24T23:30:02.693Z,8.40
2018-02-24T23:32:29.149Z,3.62
2018-02-24T23:34:55.592Z,3.05
2018-02-24T23:37:22.805Z,2.17
2018-02-24T23:39:49.242Z,3.10
2018-02-24T23:42:16.363Z,1.08
2018-02-24T23:44:43.582Z,2.65
2018-02-24T23:47:10.864Z,1.50
2018-02-24T23:49:37.333Z,1.83
2018-02-24T23:52:04.372Z,1.48
2018-02-24T23:54:31.562Z,10.23
2018-02-24T23:56:58.713Z,1.50
2018-02-24T23:59:26.623Z,2.95
